Time;durP1;ratioP1;P1;durP2;ratioP2;P2;SDS_P1;SDS_P2;PMS_P1;PMS_P2;Temp;Humidity;BMP_temperature;BMP_pressure;BME280_temperature;BME280_humidity;BME280_pressure;Samples;Min_cycle;Max_cycle;Signal;HPM_P1;HPM_P2
2022/09/14 00:00:44;;;;;;;2.23;1.60;;;13.90;99.90;;;;;;5032220;28;20678;-67
2022/09/14 00:03:09;;;;;;;5.63;2.90;;;13.80;99.90;;;;;;5031995;28;20287;-67
2022/09/14 00:05:36;;;;;;;3.60;1.87;;;14.00;99.90;;;;;;5032162;28;20228;-67
2022/09/14 00:08:02;;;;;;;3.30;2.40;;;14.00;99.90;;;;;;5032280;28;20672;-67
2022/09/14 00:10:28;;;;;;;5.43;2.30;;;13.90;99.90;;;;;;5031143;28;20505;-67
2022/09/14 00:12:54;;;;;;;2.03;1.30;;;14.10;99.90;;;;;;5032025;28;20525;-66
2022/09/14 00:15:20;;;;;;;3.20;1.50;;;14.00;99.90;;;;;;5031980;28;20860;-66
2022/09/14 00:17:45;;;;;;;5.27;1.90;;;14.00;99.90;;;;;;5031994;28;20179;-66
2022/09/14 00:20:11;;;;;;;2.37;1.73;;;14.00;99.90;;;;;;5031977;28;20233;-66
2022/09/14 00:22:36;;;;;;;4.93;1.70;;;14.00;99.90;;;;;;5031958;28;20644;-66
2022/09/14 00:25:02;;;;;;;6.30;1.60;;;14.00;99.90;;;;;;5031564;28;20252;-68
2022/09/14 00:27:28;;;;;;;3.40;1.40;;;13.90;99.90;;;;;;5031357;28;20167;-67
2022/09/14 00:29:54;;;;;;;5.50;2.30;;;13.90;99.90;;;;;;5031372;28;20405;-67
2022/09/14 00:32:19;;;;;;;5.60;2.07;;;13.90;99.90;;;;;;5031121;28;20214;-68
2022/09/14 00:34:45;;;;;;;2.27;1.40;;;13.80;99.90;;;;;;5031199;28;20167;-67
2022/09/14 00:37:11;;;;;;;3.67;1.37;;;13.80;99.90;;;;;;5031157;28;20186;-67
2022/09/14 00:39:36;;;;;;;1.87;1.50;;;13.70;99.90;;;;;;5031284;28;20174;-67
2022/09/14 00:42:04;;;;;;;2.73;1.33;;;13.80;99.90;;;;;;5031064;28;20410;-67
2022/09/14 00:44:29;;;;;;;2.03;1.70;;;13.80;99.90;;;;;;5030851;28;20198;-67
2022/09/14 00:46:57;;;;;;;4.07;1.60;;;13.70;99.90;;;;;;5031175;28;20884;-66
2022/09/14 00:49:28;;;;;;;1.43;1.23;;;13.70;99.90;;;;;;5031010;28;20262;-67
2022/09/14 00:52:02;;;;;;;4.80;1.73;;;13.60;99.90;;;;;;5031181;28;20403;-67
2022/09/14 00:54:28;;;;;;;6.70;1.70;;;13.50;99.90;;;;;;5031017;28;20410;-67
2022/09/14 00:56:56;;;;;;;4.30;1.40;;;13.50;99.90;;;;;;5031444;28;20405;-67
2022/09/14 00:59:25;;;;;;;5.40;1.80;;;13.60;99.90;;;;;;5031292;28;20406;-67
2022/09/14 01:01:51;;;;;;;4.43;1.57;;;13.50;99.90;;;;;;5031202;28;20413;-67
2022/09/14 01:04:16;;;;;;;1.67;1.57;;;13.50;99.90;;;;;;5030876;28;20691;-67
2022/09/14 01:06:52;;;;;;;5.37;2.57;;;13.50;99.90;;;;;;5030850;28;20280;-66
2022/09/14 01:09:38;;;;;;;4.40;2.50;;;13.40;99.90;;;;;;5030835;28;20163;-67
2022/09/14 01:12:52;;;;;;;7.30;3.27;;;13.30;99.90;;;;;;5030832;28;20497;-67
2022/09/14 01:15:36;;;;;;;4.17;2.93;;;13.30;99.90;;;;;;5017290;28;20932;-66
2022/09/14 01:18:14;;;;;;;5.97;3.53;;;13.40;99.90;;;;;;5028277;28;20932;-67
2022/09/14 01:20:59;;;;;;;5.10;3.50;;;13.30;99.90;;;;;;5030722;28;20434;-66
2022/09/14 01:23:40;;;;;;;5.03;4.40;;;13.30;99.90;;;;;;5034695;28;20418;-67
2022/09/14 01:26:30;;;;;;;7.30;4.23;;;13.30;99.90;;;;;;5034639;28;20418;-67
2022/09/14 01:29:13;;;;;;;4.90;3.40;;;13.20;99.90;;;;;;5034328;28;20485;-66
2022/09/14 01:32:05;;;;;;;5.37;3.17;;;13.20;99.90;;;;;;5034573;28;20493;-66
2022/09/14 01:34:50;;;;;;;6.93;3.40;;;13.10;99.90;;;;;;5034180;28;20788;-67
2022/09/14 01:37:25;;;;;;;5.00;2.87;;;13.10;99.90;;;;;;5034382;28;20920;-66
2022/09/14 01:40:15;;;;;;;5.13;2.83;;;13.10;99.90;;;;;;5034402;28;20402;-67
2022/09/14 01:42:44;;;;;;;4.10;2.40;;;13.10;99.90;;;;;;5034321;28;20544;-67
2022/09/14 01:45:15;;;;;;;6.70;2.13;;;13.00;99.90;;;;;;5034113;28;21099;-67
2022/09/14 01:47:45;;;;;;;4.00;3.10;;;13.00;99.90;;;;;;5034578;28;20429;-67
2022/09/14 01:50:23;;;;;;;5.17;3.03;;;13.00;99.90;;;;;;5034316;28;20497;-67
2022/09/14 01:53:05;;;;;;;6.57;3.23;;;13.00;99.90;;;;;;5029570;28;20430;-67
2022/09/14 01:56:00;;;;;;;4.40;2.80;;;12.90;99.90;;;;;;5016200;28;20414;-67
2022/09/14 01:58:50;;;;;;;3.83;2.07;;;13.00;99.90;;;;;;5034211;28;20506;-67
2022/09/14 02:01:21;;;;;;;4.33;2.57;;;12.90;99.90;;;;;;5020007;28;20442;-67
2022/09/14 02:03:51;;;;;;;3.13;1.70;;;13.00;99.90;;;;;;5034259;28;20458;-67
2022/09/14 02:06:41;;;;;;;3.70;2.60;;;12.90;99.90;;;;;;5033994;28;20477;-67
2022/09/14 02:09:10;;;;;;;3.00;2.10;;;12.90;99.90;;;;;;5034330;28;20417;-67
2022/09/14 02:11:36;;;;;;;4.73;2.50;;;12.90;99.90;;;;;;5033903;28;20402;-66
2022/09/14 02:14:03;;;;;;;6.23;2.77;;;12.80;99.90;;;;;;5034043;28;20844;-67
2022/09/14 02:16:28;;;;;;;4.43;2.30;;;12.90;99.90;;;;;;5033648;28;20425;-67
2022/09/14 02:18:54;;;;;;;6.97;1.87;;;13.00;99.90;;;;;;5033714;28;20407;-67
2022/09/14 02:21:25;;;;;;;2.83;1.70;;;13.00;99.90;;;;;;5033805;28;20418;-67
2022/09/14 02:23:51;;;;;;;4.33;1.90;;;12.90;99.90;;;;;;5033647;28;20234;-67
2022/09/14 02:26:17;;;;;;;4.07;2.10;;;12.90;99.90;;;;;;5033149;28;20434;-68
2022/09/14 02:28:43;;;;;;;4.20;1.63;;;12.80;99.90;;;;;;5033639;28;20180;-67
2022/09/14 02:31:16;;;;;;;5.13;2.03;;;12.90;99.90;;;;;;5033732;28;20540;-66
2022/09/14 02:34:01;;;;;;;3.40;2.00;;;12.80;99.90;;;;;;5032471;28;20569;-67
2022/09/14 02:36:52;;;;;;;3.27;1.90;;;12.80;99.90;;;;;;5033419;28;20398;-67
2022/09/14 02:39:48;;;;;;;1.97;1.60;;;12.80;99.90;;;;;;5033721;28;20394;-66
2022/09/14 02:42:36;;;;;;;6.00;1.87;;;12.90;99.90;;;;;;5033475;28;20965;-67
2022/09/14 02:45:12;;;;;;;3.73;2.57;;;12.90;99.90;;;;;;5033359;28;20459;-67
2022/09/14 02:47:54;;;;;;;7.30;2.63;;;12.90;99.90;;;;;;5033273;28;20899;-66
2022/09/14 02:50:49;;;;;;;7.17;1.87;;;12.90;99.90;;;;;;5033293;28;20413;-67
2022/09/14 02:53:32;;;;;;;2.43;1.50;;;12.90;99.90;;;;;;5033142;28;20855;-67
2022/09/14 02:56:02;;;;;;;3.57;2.13;;;12.90;99.90;;;;;;5033059;28;20401;-67
2022/09/14 02:58:40;;;;;;;5.57;2.73;;;12.80;99.90;;;;;;5033165;28;20888;-66
2022/09/14 03:01:07;;;;;;;5.80;2.10;;;12.70;99.90;;;;;;5033198;28;20469;-67
2022/09/14 03:03:32;;;;;;;3.13;2.20;;;12.70;99.90;;;;;;5032791;28;20438;-68
2022/09/14 03:05:58;;;;;;;4.60;2.20;;;12.70;99.90;;;;;;5032699;28;20411;-67
2022/09/14 03:08:25;;;;;;;3.37;2.13;;;12.70;99.90;;;;;;5033017;28;20630;-67
2022/09/14 03:10:51;;;;;;;3.03;2.43;;;12.70;99.90;;;;;;5033104;28;20250;-67
2022/09/14 03:13:16;;;;;;;6.80;2.23;;;12.70;99.90;;;;;;5032909;28;20458;-68
2022/09/14 03:15:42;;;;;;;2.93;2.00;;;12.70;99.90;;;;;;5032777;28;20168;-68
2022/09/14 03:18:08;;;;;;;3.67;1.70;;;12.70;99.90;;;;;;5032935;28;20176;-68
2022/09/14 03:20:34;;;;;;;4.23;1.60;;;12.80;99.90;;;;;;5033152;28;20274;-67
2022/09/14 03:23:02;;;;;;;4.10;2.50;;;12.80;99.90;;;;;;5033375;28;20456;-68
2022/09/14 03:25:28;;;;;;;2.70;1.80;;;12.90;99.90;;;;;;5032531;28;20493;-67
2022/09/14 03:27:58;;;;;;;2.73;1.97;;;12.80;99.90;;;;;;5032746;28;20414;-67
2022/09/14 03:30:25;;;;;;;4.97;2.23;;;12.80;99.90;;;;;;5032460;28;20407;-68
2022/09/14 03:32:50;;;;;;;3.87;1.73;;;12.70;99.90;;;;;;5032369;28;20513;-68
2022/09/14 03:35:17;;;;;;;4.93;2.13;;;12.70;99.90;;;;;;5032343;28;20826;-68
2022/09/14 03:37:44;;;;;;;3.03;2.23;;;12.70;99.90;;;;;;5032445;28;20305;-68
2022/09/14 03:40:11;;;;;;;2.17;1.97;;;12.60;99.90;;;;;;5032599;28;20421;-68
2022/09/14 03:42:44;;;;;;;4.20;2.20;;;12.60;99.90;;;;;;5032256;28;20927;-68
2022/09/14 03:45:11;;;;;;;7.30;2.33;;;12.60;99.90;;;;;;5031906;28;20449;-67
2022/09/14 03:47:38;;;;;;;4.13;2.10;;;12.60;99.90;;;;;;5032199;28;20418;-67
2022/09/14 03:50:04;;;;;;;1.80;1.70;;;12.70;99.90;;;;;;5032381;28;20904;-66
2022/09/14 03:52:29;;;;;;;3.90;1.90;;;12.80;99.90;;;;;;5032154;28;20484;-67
2022/09/14 03:54:55;;;;;;;6.13;2.10;;;12.80;99.90;;;;;;5032026;28;20495;-68
2022/09/14 03:57:20;;;;;;;3.90;1.83;;;12.70;99.90;;;;;;5032194;28;20265;-68
2022/09/14 03:59:46;;;;;;;4.17;1.90;;;12.70;99.90;;;;;;5031968;28;20197;-67
2022/09/14 04:02:12;;;;;;;3.90;2.40;;;12.60;99.90;;;;;;5031795;28;21019;-67
2022/09/14 04:04:38;;;;;;;2.73;2.00;;;12.60;99.90;;;;;;5032128;28;20266;-67
2022/09/14 04:07:03;;;;;;;2.80;1.87;;;12.60;99.90;;;;;;5031838;28;20881;-68
2022/09/14 04:09:29;;;;;;;2.27;1.47;;;12.60;99.90;;;;;;5031995;28;20222;-67
2022/09/14 04:11:54;;;;;;;2.00;1.80;;;12.60;99.90;;;;;;5031897;28;20183;-67
2022/09/14 04:14:20;;;;;;;3.77;1.87;;;12.60;99.90;;;;;;5032030;28;20182;-68
2022/09/14 04:16:45;;;;;;;3.60;2.00;;;12.70;99.90;;;;;;5031598;28;20184;-68
2022/09/14 04:19:11;;;;;;;2.33;1.80;;;12.70;99.90;;;;;;5031688;28;20579;-67
2022/09/14 04:21:37;;;;;;;3.97;1.70;;;12.60;99.90;;;;;;5031648;28;20179;-67
2022/09/14 04:24:03;;;;;;;3.33;2.00;;;12.50;99.90;;;;;;5031359;28;20523;-68
2022/09/14 04:26:30;;;;;;;5.37;2.20;;;12.50;99.90;;;;;;5031414;28;20238;-67
2022/09/14 04:28:56;;;;;;;3.60;2.03;;;12.60;99.90;;;;;;5031455;28;20225;-66
2022/09/14 04:31:22;;;;;;;2.70;2.27;;;12.60;99.90;;;;;;5031304;28;20774;-66
2022/09/14 04:33:50;;;;;;;4.70;2.33;;;12.70;99.90;;;;;;5031259;28;20544;-67
2022/09/14 04:36:18;;;;;;;4.20;1.63;;;12.80;99.90;;;;;;5031306;28;20441;-66
2022/09/14 04:38:44;;;;;;;4.40;3.03;;;12.80;99.90;;;;;;5031279;28;20403;-66
2022/09/14 04:41:16;;;;;;;2.53;1.97;;;12.80;99.90;;;;;;5031390;28;20407;-68
2022/09/14 04:43:43;;;;;;;3.63;2.33;;;12.90;99.90;;;;;;5031133;28;20462;-68
2022/09/14 04:46:13;;;;;;;2.07;1.87;;;12.90;99.90;;;;;;5031199;28;20738;-67
2022/09/14 04:48:39;;;;;;;1.97;1.77;;;12.80;99.90;;;;;;5031350;28;20403;-67
2022/09/14 04:51:08;;;;;;;6.47;2.47;;;12.80;99.90;;;;;;5031237;28;20973;-67
2022/09/14 04:53:35;;;;;;;5.70;2.40;;;12.80;99.90;;;;;;5031371;28;20528;-67
2022/09/14 04:56:02;;;;;;;2.60;2.43;;;12.80;99.90;;;;;;5031878;28;20414;-68
2022/09/14 04:58:28;;;;;;;3.27;1.90;;;12.80;99.90;;;;;;5035375;28;20441;-68
2022/09/14 05:00:59;;;;;;;3.80;2.50;;;12.90;99.90;;;;;;5035734;28;20406;-67
2022/09/14 05:03:25;;;;;;;4.07;2.00;;;13.00;99.90;;;;;;5035471;28;20522;-68
2022/09/14 05:05:50;;;;;;;1.93;1.83;;;13.00;99.90;;;;;;5035597;28;20462;-67
2022/09/14 05:08:16;;;;;;;3.90;1.77;;;13.10;99.90;;;;;;5035705;28;20586;-67
2022/09/14 05:10:41;;;;;;;4.53;2.13;;;13.10;99.90;;;;;;5035480;28;20171;-68
2022/09/14 05:13:07;;;;;;;2.57;2.10;;;13.10;99.90;;;;;;5037205;28;20183;-68
2022/09/14 05:15:32;;;;;;;3.17;1.73;;;13.20;99.90;;;;;;5036064;28;20254;-67
2022/09/14 05:17:58;;;;;;;2.67;2.30;;;13.20;99.90;;;;;;5035338;28;20170;-67
2022/09/14 05:20:23;;;;;;;3.40;1.80;;;13.30;99.90;;;;;;5035275;28;20172;-67
2022/09/14 05:22:50;;;;;;;4.27;2.03;;;13.30;99.90;;;;;;5034880;28;20215;-67
2022/09/14 05:25:15;;;;;;;4.97;2.83;;;13.30;99.90;;;;;;5034678;28;20195;-67
2022/09/14 05:27:41;;;;;;;4.10;2.50;;;13.30;99.90;;;;;;5034809;28;20906;-68
2022/09/14 05:30:07;;;;;;;5.33;3.00;;;13.30;99.90;;;;;;5034910;28;20168;-67
2022/09/14 05:32:33;;;;;;;6.20;2.90;;;13.40;99.90;;;;;;5034757;28;20187;-66
2022/09/14 05:34:58;;;;;;;5.03;2.70;;;13.40;99.90;;;;;;5034515;28;20501;-67
2022/09/14 05:37:24;;;;;;;4.63;2.97;;;13.40;99.90;;;;;;5034728;28;20201;-67
2022/09/14 05:39:49;;;;;;;3.87;2.60;;;13.50;99.90;;;;;;5034481;28;20218;-67
2022/09/14 05:42:15;;;;;;;9.10;3.20;;;13.60;99.90;;;;;;5034529;28;20199;-67
2022/09/14 05:44:40;;;;;;;4.80;3.07;;;13.60;99.90;;;;;;5034310;28;20329;-67
2022/09/14 05:47:06;;;;;;;8.87;2.93;;;13.60;99.90;;;;;;5034366;28;20610;-67
2022/09/14 05:49:31;;;;;;;5.40;2.63;;;13.60;99.90;;;;;;5034389;28;20171;-66
2022/09/14 05:51:57;;;;;;;3.73;2.90;;;13.60;99.90;;;;;;5034292;28;20172;-68
2022/09/14 05:54:22;;;;;;;4.00;2.30;;;13.70;99.90;;;;;;5034410;28;20187;-68
2022/09/14 05:56:48;;;;;;;6.00;2.83;;;13.80;99.90;;;;;;5034342;28;20180;-66
2022/09/14 05:59:14;;;;;;;6.80;2.77;;;13.70;99.90;;;;;;5034178;28;20501;-67
2022/09/14 06:01:39;;;;;;;6.33;3.40;;;13.80;99.90;;;;;;5034158;28;20293;-67
2022/09/14 06:04:05;;;;;;;10.93;2.70;;;13.90;99.90;;;;;;5016078;28;20234;-67
2022/09/14 06:06:32;;;;;;;2.57;2.30;;;14.00;99.90;;;;;;5031370;28;20171;-67
2022/09/14 06:08:58;;;;;;;8.00;2.97;;;14.10;99.90;;;;;;5032378;28;20163;-68
2022/09/14 06:11:27;;;;;;;9.97;3.30;;;14.20;99.90;;;;;;5033615;28;20407;-67
2022/09/14 06:13:54;;;;;;;7.73;3.70;;;14.50;99.90;;;;;;5033472;28;20434;-68
2022/09/14 06:16:21;;;;;;;4.57;2.50;;;14.60;99.90;;;;;;5033615;28;20447;-67
2022/09/14 06:18:47;;;;;;;4.90;3.07;;;14.80;99.90;;;;;;5033912;28;20406;-67
2022/09/14 06:21:15;;;;;;;3.60;3.07;;;15.00;99.90;;;;;;5033690;28;20507;-67
2022/09/14 06:23:41;;;;;;;7.03;3.00;;;15.20;99.90;;;;;;5033255;28;20458;-66
2022/09/14 06:26:07;;;;;;;4.07;2.53;;;15.40;99.90;;;;;;5033298;28;20976;-67
2022/09/14 06:28:33;;;;;;;3.20;2.03;;;15.50;99.90;;;;;;5033504;28;20425;-67
2022/09/14 06:31:02;;;;;;;2.73;2.53;;;15.60;99.90;;;;;;5033658;28;20548;-67
2022/09/14 06:33:27;;;;;;;6.17;2.30;;;15.70;99.90;;;;;;5016145;28;20504;-68
2022/09/14 06:35:58;;;;;;;6.10;2.93;;;15.60;99.90;;;;;;5033592;28;20559;-68
2022/09/14 06:38:24;;;;;;;6.30;2.37;;;15.30;99.90;;;;;;5033424;28;20264;-67
2022/09/14 06:40:52;;;;;;;4.90;2.03;;;15.50;99.90;;;;;;5018941;28;20507;-67
2022/09/14 06:43:17;;;;;;;4.17;2.00;;;15.30;99.90;;;;;;5033590;28;20444;-67
2022/09/14 06:45:43;;;;;;;3.40;1.83;;;15.60;99.90;;;;;;5032960;28;20453;-67
2022/09/14 06:48:08;;;;;;;3.17;2.03;;;16.40;99.90;;;;;;5033346;28;20175;-68
2022/09/14 06:50:34;;;;;;;2.63;1.97;;;16.50;99.90;;;;;;5033180;28;20265;-68
2022/09/14 06:52:59;;;;;;;5.27;1.90;;;17.10;99.90;;;;;;5033056;28;20194;-67
2022/09/14 06:55:26;;;;;;;2.60;1.87;;;17.50;99.90;;;;;;5033053;28;20174;-67
2022/09/14 06:57:51;;;;;;;4.73;1.50;;;17.10;99.90;;;;;;5033300;28;20236;-67
2022/09/14 07:00:18;;;;;;;3.30;1.83;;;17.00;99.90;;;;;;5033205;28;20411;-67
2022/09/14 07:02:43;;;;;;;4.27;2.10;;;16.50;99.90;;;;;;5032860;28;20211;-67
2022/09/14 07:05:09;;;;;;;2.57;1.70;;;17.20;99.90;;;;;;5032817;28;20510;-68
2022/09/14 07:07:34;;;;;;;3.00;1.90;;;16.90;99.90;;;;;;5033020;28;20181;-67
2022/09/14 07:10:00;;;;;;;3.50;2.33;;;16.20;99.90;;;;;;5033468;28;20660;-67
2022/09/14 07:12:26;;;;;;;3.53;1.50;;;16.90;99.90;;;;;;5033589;28;20195;-67
2022/09/14 07:14:52;;;;;;;6.03;3.03;;;17.30;99.90;;;;;;5033055;28;20271;-67
2022/09/14 07:17:18;;;;;;;4.77;2.13;;;17.60;99.90;;;;;;5033246;28;20513;-67
2022/09/14 07:19:44;;;;;;;4.60;1.70;;;18.10;99.90;;;;;;5032768;28;20333;-67
2022/09/14 07:22:09;;;;;;;4.87;2.93;;;17.70;99.90;;;;;;5033004;28;20497;-67
2022/09/14 07:24:35;;;;;;;2.30;1.57;;;17.20;99.90;;;;;;5033066;28;20660;-66
2022/09/14 07:27:01;;;;;;;4.80;1.70;;;16.90;99.90;;;;;;5033270;28;20177;-67
2022/09/14 07:29:27;;;;;;;2.93;1.40;;;16.80;99.90;;;;;;5033095;28;20280;-68
2022/09/14 07:31:55;;;;;;;3.43;1.13;;;16.80;99.90;;;;;;5032804;28;20436;-67
2022/09/14 07:34:22;;;;;;;4.80;1.30;;;17.30;99.90;;;;;;5032893;28;20181;-67
2022/09/14 07:36:48;;;;;;;2.20;1.30;;;17.90;99.90;;;;;;5032568;28;20498;-68
2022/09/14 07:39:15;;;;;;;5.63;2.30;;;18.60;99.90;;;;;;5032861;28;20544;-68
2022/09/14 07:41:42;;;;;;;4.07;1.40;;;17.90;99.90;;;;;;5033875;28;20174;-67
2022/09/14 07:44:08;;;;;;;5.10;1.50;;;19.00;99.90;;;;;;5032182;28;20460;-66
2022/09/14 07:46:42;;;;;;;3.43;1.47;;;19.60;99.90;;;;;;5032775;28;20761;-67
2022/09/14 07:49:09;;;;;;;5.60;3.73;;;19.60;99.90;;;;;;5032825;28;20494;-68
2022/09/14 07:51:36;;;;;;;3.33;1.80;;;20.30;99.90;;;;;;5032812;28;20415;-67
2022/09/14 07:54:03;;;;;;;11.23;2.40;;;20.50;99.90;;;;;;5032845;28;20434;-67
2022/09/14 07:56:29;;;;;;;10.17;1.93;;;20.50;99.90;;;;;;5032392;28;20424;-68
2022/09/14 07:58:57;;;;;;;6.60;2.43;;;19.70;99.90;;;;;;5032688;28;20880;-68
2022/09/14 08:01:23;;;;;;;2.40;1.90;;;19.70;99.90;;;;;;5031861;28;20231;-68
2022/09/14 08:03:49;;;;;;;1.77;1.17;;;19.00;99.90;;;;;;5037655;22;20494;-74
2022/09/14 08:06:18;;;;;;;2.70;1.13;;;18.50;99.90;;;;;;5012412;28;20781;-74
2022/09/14 08:08:45;;;;;;;4.23;1.90;;;19.10;99.90;;;;;;4998537;28;20182;-73
2022/09/14 08:11:25;;;;;;;5.00;1.80;;;19.90;99.90;;;;;;5006839;28;20867;-73
2022/09/14 08:13:58;;;;;;;3.37;2.33;;;20.20;99.90;;;;;;5011999;28;20472;-74
2022/09/14 08:16:26;;;;;;;1.83;1.67;;;20.50;99.90;;;;;;5012561;28;20400;-73
2022/09/14 08:18:59;;;;;;;7.10;2.20;;;20.50;99.90;;;;;;5012635;28;20463;-75
2022/09/14 08:21:26;;;;;;;3.10;1.90;;;19.70;99.90;;;;;;5012470;28;20385;-74
2022/09/14 08:23:53;;;;;;;3.17;2.03;;;19.90;99.90;;;;;;5012352;28;20423;-75
2022/09/14 08:26:21;;;;;;;6.87;4.87;;;19.40;99.90;;;;;;5012421;28;20450;-74
2022/09/14 08:28:48;;;;;;;4.70;2.10;;;19.90;99.90;;;;;;5012527;28;20403;-75
2022/09/14 08:31:16;;;;;;;2.57;1.60;;;19.30;99.90;;;;;;5011509;28;20412;-73
2022/09/14 08:33:44;;;;;;;9.77;1.30;;;19.60;99.90;;;;;;5012392;28;20431;-75
2022/09/14 08:36:12;;;;;;;4.30;1.80;;;20.00;99.90;;;;;;5012095;28;20403;-75
2022/09/14 08:38:38;;;;;;;3.10;1.10;;;20.10;99.90;;;;;;5012419;28;20491;-74
2022/09/14 08:41:19;;;;;;;2.73;1.20;;;20.40;99.90;;;;;;5012787;28;20468;-75
2022/09/14 08:43:44;;;;;;;3.70;1.30;;;19.90;99.90;;;;;;5012217;28;20189;-75
2022/09/14 08:46:34;;;;;;;3.00;1.20;;;19.20;99.90;;;;;;5003540;28;20419;-76
2022/09/14 08:49:02;;;;;;;3.63;1.27;;;19.60;99.90;;;;;;5031971;28;20167;-75
2022/09/14 08:51:29;;;;;;;4.43;2.30;;;19.80;99.90;;;;;;5028773;28;20402;-75
2022/09/14 08:53:56;;;;;;;6.17;2.10;;;19.90;99.90;;;;;;5012250;28;20773;-74
2022/09/14 08:56:32;;;;;;;2.80;1.50;;;19.80;99.90;;;;;;5012053;28;20457;-75
2022/09/14 08:59:15;;;;;;;2.70;0.97;;;19.80;99.90;;;;;;5013340;28;20747;-74
2022/09/14 09:02:06;;;;;;;2.50;1.33;;;19.00;99.90;;;;;;5018773;28;20406;-74
2022/09/14 09:04:49;;;;;;;4.13;1.77;;;18.80;99.90;;;;;;4992950;28;20465;-73
2022/09/14 09:07:21;;;;;;;3.37;2.53;;;19.30;99.90;;;;;;4993089;28;20398;-74
2022/09/14 09:09:51;;;;;;;5.67;3.70;;;19.00;99.90;;;;;;4992714;28;20908;-74
2022/09/14 09:12:49;;;;;;;3.20;2.20;;;18.90;99.90;;;;;;4994018;28;20395;-75
2022/09/14 09:15:32;;;;;;;7.27;2.10;;;18.50;99.90;;;;;;5012098;28;20947;-74
2022/09/14 09:18:24;;;;;;;3.00;1.60;;;19.10;99.90;;;;;;5011892;28;20412;-74
2022/09/14 09:20:54;;;;;;;2.90;1.10;;;18.50;99.90;;;;;;4994198;28;20458;-75
2022/09/14 09:23:22;;;;;;;6.30;1.40;;;18.70;99.90;;;;;;5011549;28;20427;-74
2022/09/14 09:25:59;;;;;;;4.27;1.57;;;18.80;99.90;;;;;;5011925;28;20448;-74
2022/09/14 09:28:27;;;;;;;2.57;1.10;;;18.80;99.90;;;;;;5011617;28;20916;-74
2022/09/14 09:30:56;;;;;;;2.57;1.57;;;18.60;99.90;;;;;;5011865;28;20471;-74
2022/09/14 09:33:25;;;;;;;2.80;1.33;;;18.60;99.90;;;;;;5011429;28;20455;-74
2022/09/14 09:35:52;;;;;;;3.30;1.40;;;19.00;99.90;;;;;;5011682;28;20531;-76
2022/09/14 09:38:23;;;;;;;1.60;1.43;;;18.90;99.90;;;;;;5011659;28;20414;-74
2022/09/14 09:41:06;;;;;;;4.73;1.53;;;19.00;99.90;;;;;;5011838;28;20433;-74
2022/09/14 09:43:31;;;;;;;1.90;1.13;;;19.50;99.90;;;;;;5014306;28;20433;-75
2022/09/14 09:46:05;;;;;;;5.93;1.30;;;19.30;99.90;;;;;;5015316;28;20445;-74
2022/09/14 09:48:37;;;;;;;12.97;4.03;;;19.20;99.90;;;;;;5015993;28;20172;-74
2022/09/14 09:51:17;;;;;;;1.33;1.17;;;19.60;99.90;;;;;;5017180;28;20408;-73
2022/09/14 09:53:54;;;;;;;4.10;1.57;;;19.20;99.90;;;;;;5015401;28;20428;-74
2022/09/14 09:56:24;;;;;;;2.50;1.30;;;19.00;99.90;;;;;;5015151;28;20409;-74
2022/09/14 09:58:50;;;;;;;6.50;1.23;;;18.70;99.90;;;;;;5015326;28;20522;-74
2022/09/14 10:01:26;;;;;;;4.60;1.50;;;19.00;99.90;;;;;;5015744;28;20432;-74
2022/09/14 10:04:15;;;;;;;4.50;2.20;;;19.40;99.90;;;;;;5014741;28;20449;-74
2022/09/14 10:06:53;;;;;;;3.90;1.20;;;19.80;99.90;;;;;;5014854;28;20830;-74
2022/09/14 10:09:22;;;;;;;13.13;3.90;;;19.50;99.90;;;;;;5015303;28;20879;-74
2022/09/14 10:11:59;;;;;;;8.33;1.73;;;19.40;99.90;;;;;;5014916;28;20407;-74
2022/09/14 10:14:31;;;;;;;15.40;5.13;;;19.40;99.90;;;;;;4997239;28;20437;-74
2022/09/14 10:17:04;;;;;;;3.60;1.27;;;19.50;99.90;;;;;;5014806;28;20433;-74
2022/09/14 10:19:30;;;;;;;10.07;3.07;;;19.40;99.90;;;;;;5014711;28;20463;-73
2022/09/14 10:22:16;;;;;;;22.40;3.27;;;19.60;99.90;;;;;;5014663;28;20535;-73
2022/09/14 10:25:10;;;;;;;4.77;1.60;;;19.90;99.90;;;;;;5007940;28;20453;-73
2022/09/14 10:27:58;;;;;;;2.73;1.30;;;19.10;99.90;;;;;;5003646;28;20429;-75
2022/09/14 10:30:39;;;;;;;1.80;1.03;;;19.50;99.90;;;;;;5014798;28;20391;-74
2022/09/14 10:33:07;;;;;;;2.90;1.77;;;19.90;99.90;;;;;;5014605;28;20438;-73
2022/09/14 10:35:49;;;;;;;138.77;27.13;;;20.10;99.90;;;;;;5014516;28;20412;-74
2022/09/14 10:38:32;;;;;;;4.50;1.20;;;20.20;99.90;;;;;;4997303;28;20924;-74
2022/09/14 10:41:13;;;;;;;6.80;1.73;;;19.80;99.90;;;;;;5015391;28;20422;-74
2022/09/14 10:43:53;;;;;;;2.33;1.80;;;20.10;99.90;;;;;;5021727;28;20965;-74
2022/09/14 10:46:24;;;;;;;2.00;1.23;;;19.70;99.90;;;;;;5023593;28;20397;-74
2022/09/14 10:49:06;;;;;;;3.60;1.27;;;19.90;99.90;;;;;;5018660;28;20869;-74
2022/09/14 10:51:44;;;;;;;4.00;1.23;;;20.00;99.90;;;;;;5014170;28;20392;-73
2022/09/14 10:54:34;;;;;;;2.50;1.00;;;20.00;99.90;;;;;;5013174;28;20423;-74
2022/09/14 10:57:07;;;;;;;3.07;1.30;;;20.20;99.90;;;;;;5013877;28;20416;-74
2022/09/14 10:59:50;;;;;;;2.20;1.20;;;20.00;99.90;;;;;;5013978;28;20951;-74
2022/09/14 11:02:28;;;;;;;3.63;1.20;;;19.70;99.90;;;;;;5014039;28;20816;-73
2022/09/14 11:05:02;;;;;;;1.93;1.17;;;19.90;99.90;;;;;;5013321;28;20464;-73
2022/09/14 11:07:47;;;;;;;3.03;1.33;;;20.50;99.90;;;;;;5013974;28;20487;-73
2022/09/14 11:10:31;;;;;;;6.40;1.33;;;20.80;99.90;;;;;;5013766;28;20391;-73
2022/09/14 11:13:22;;;;;;;3.07;1.77;;;20.30;99.90;;;;;;5013893;28;20967;-74
2022/09/14 11:16:04;;;;;;;3.63;1.03;;;20.50;99.90;;;;;;4993923;28;20427;-73
2022/09/14 11:18:55;;;;;;;3.43;1.50;;;20.40;99.90;;;;;;4994089;28;20891;-73
2022/09/14 11:21:55;;;;;;;3.87;2.07;;;19.80;99.90;;;;;;5010890;28;20432;-74
2022/09/14 11:24:24;;;;;;;2.80;1.23;;;19.50;99.90;;;;;;5013399;28;20512;-74
2022/09/14 11:27:14;;;;;;;8.57;3.60;;;19.20;99.90;;;;;;5013592;28;20916;-73
2022/09/14 11:29:47;;;;;;;3.90;1.40;;;19.90;99.90;;;;;;5013680;28;20766;-73
2022/09/14 11:32:16;;;;;;;6.80;1.83;;;20.10;99.90;;;;;;5013725;28;20402;-73
2022/09/14 11:34:48;;;;;;;3.03;1.30;;;19.80;99.90;;;;;;5013249;28;20575;-72
2022/09/14 11:37:17;;;;;;;2.80;1.40;;;19.40;99.90;;;;;;5013601;28;20425;-73
2022/09/14 11:39:48;;;;;;;1.37;0.80;;;20.00;99.90;;;;;;5013630;28;20411;-74
2022/09/14 11:42:29;;;;;;;4.70;2.00;;;20.10;99.90;;;;;;5013247;28;20404;-74
2022/09/14 11:45:04;;;;;;;4.13;1.50;;;20.40;99.90;;;;;;5013448;28;20461;-73
2022/09/14 11:47:37;;;;;;;2.70;2.33;;;20.00;99.90;;;;;;5013329;28;20412;-74
2022/09/14 11:50:16;;;;;;;9.03;1.97;;;20.30;99.90;;;;;;5013475;28;20749;-73
2022/09/14 11:52:42;;;;;;;2.60;1.50;;;20.30;99.90;;;;;;5013120;28;20404;-74
2022/09/14 11:55:14;;;;;;;4.40;2.83;;;20.40;99.90;;;;;;5012964;28;20421;-73
2022/09/14 11:57:44;;;;;;;5.47;2.20;;;20.90;99.90;;;;;;5001505;28;20199;-74
2022/09/14 12:00:24;;;;;;;3.20;2.20;;;20.80;99.90;;;;;;5005646;28;20417;-73
2022/09/14 12:03:20;;;;;;;2.63;1.30;;;20.10;99.90;;;;;;5012936;28;20422;-73
2022/09/14 12:05:48;;;;;;;1.93;1.17;;;19.90;99.90;;;;;;5004527;28;20493;-73
2022/09/14 12:08:34;;;;;;;2.07;1.60;;;19.80;99.90;;;;;;5012965;28;20411;-73
2022/09/14 12:11:23;;;;;;;4.70;1.40;;;19.90;99.90;;;;;;5013244;28;20416;-73
2022/09/14 12:13:48;;;;;;;2.90;1.03;;;20.50;99.90;;;;;;5012998;28;20762;-73
2022/09/14 12:16:14;;;;;;;3.30;1.53;;;20.50;99.90;;;;;;5013396;28;20497;-73
2022/09/14 12:18:42;;;;;;;1.20;0.97;;;20.40;99.90;;;;;;5023779;28;20200;-72
2022/09/14 12:21:24;;;;;;;1.97;1.43;;;20.10;99.90;;;;;;5031090;28;20162;-73
2022/09/14 12:23:55;;;;;;;2.03;1.20;;;20.30;99.90;;;;;;5029384;28;20421;-72
2022/09/14 12:26:31;;;;;;;4.73;1.43;;;20.30;99.90;;;;;;5018962;28;20410;-73
2022/09/14 12:29:03;;;;;;;3.67;1.43;;;19.50;99.90;;;;;;5018760;28;20412;-72
2022/09/14 12:31:52;;;;;;;3.00;1.33;;;19.30;99.90;;;;;;5018619;28;20419;-72
2022/09/14 12:34:20;;;;;;;3.50;2.10;;;19.90;99.90;;;;;;5009135;28;20537;-73
2022/09/14 12:36:46;;;;;;;2.80;1.57;;;20.10;99.90;;;;;;5014530;28;20571;-73
2022/09/14 12:39:32;;;;;;;3.33;1.80;;;19.80;99.90;;;;;;5014420;28;20446;-72
2022/09/14 12:42:00;;;;;;;4.13;1.37;;;19.90;99.90;;;;;;5012659;28;20173;-73
2022/09/14 12:44:32;;;;;;;3.00;1.10;;;19.50;99.90;;;;;;5012355;28;20538;-72
2022/09/14 12:47:23;;;;;;;2.20;1.40;;;19.50;99.90;;;;;;5012205;28;20402;-72
2022/09/14 12:49:49;;;;;;;4.47;1.37;;;19.90;99.90;;;;;;5012746;28;20401;-72
2022/09/14 12:52:26;;;;;;;2.70;1.30;;;19.50;99.90;;;;;;5012517;28;20890;-74
2022/09/14 12:55:03;;;;;;;2.67;1.53;;;19.10;99.90;;;;;;5012057;28;20465;-73
2022/09/14 12:57:55;;;;;;;3.57;1.03;;;19.70;99.90;;;;;;5012049;28;20443;-73
2022/09/14 13:00:21;;;;;;;6.90;1.57;;;20.30;99.90;;;;;;5009247;28;20463;-72
2022/09/14 13:03:34;;;;;;;1.37;1.00;;;20.40;99.90;;;;;;5012088;28;20416;-72
2022/09/14 13:06:01;;;;;;;2.60;1.63;;;20.30;99.90;;;;;;4998403;28;20564;-73
2022/09/14 13:08:27;;;;;;;3.47;1.50;;;20.90;99.90;;;;;;5012259;28;20405;-72